N979AE TNCM-MZBZ
Flight info
| Callsign | N979AE |
|---|---|
| Flight time | 3h 22m |
| Altitude | 40000 |
| Route | PJM R760 COY DCT GESSO L349 SATOE UL349 BZE |
| Aircraft | C750/M-SBDE3FGHRWXY/S |
Departure
| Time | 2026-04-26 03:49 |
|---|---|
| Airport | Princess Juliana International Airport (TNCM) |
Arrival
| Time | 2026-04-26 07:12 |
|---|---|
| Airport | Philip S. W. Goldson International Airport (MZBZ) |
| Time | Latitude | Longitude | Altitude | Speed | Heading |
|---|---|---|---|---|---|
| 2026-04-26 03:27 | 18.04203 | -63.11037 | 18 ft | 0 kts | 352° |
| 2026-04-26 03:43 | 18.04204 | -63.11037 | 17 ft | 1 kts | 354° |
| 2026-04-26 03:44 | 18.04207 | -63.11027 | 19 ft | 3 kts | 92° |
| 2026-04-26 03:44 | 18.04189 | -63.11029 | 19 ft | 5 kts | 224° |
| 2026-04-26 03:44 | 18.04162 | -63.11083 | 18 ft | 12 kts | 257° |
| 2026-04-26 03:44 | 18.04150 | -63.11167 | 18 ft | 11 kts | 263° |
| 2026-04-26 03:45 | 18.04140 | -63.11242 | 19 ft | 10 kts | 261° |
| 2026-04-26 03:45 | 18.04155 | -63.11300 | 18 ft | 8 kts | 333° |
| 2026-04-26 03:45 | 18.04211 | -63.11309 | 17 ft | 9 kts | 343° |
| 2026-04-26 03:45 | 18.04239 | -63.11366 | 17 ft | 11 kts | 262° |
| 2026-04-26 03:46 | 18.04226 | -63.11449 | 17 ft | 12 kts | 261° |
| 2026-04-26 03:46 | 18.04188 | -63.11519 | 17 ft | 10 kts | 231° |
| 2026-04-26 03:46 | 18.04146 | -63.11574 | 18 ft | 9 kts | 231° |
| 2026-04-26 03:47 | 18.04062 | -63.11700 | 18 ft | 13 kts | 258° |
| 2026-04-26 03:47 | 18.04050 | -63.11786 | 17 ft | 11 kts | 262° |
| 2026-04-26 03:47 | 18.04039 | -63.11868 | 19 ft | 12 kts | 261° |
| 2026-04-26 03:47 | 18.04007 | -63.11934 | 18 ft | 9 kts | 232° |
| 2026-04-26 03:48 | 18.03965 | -63.11968 | 18 ft | 7 kts | 186° |
| 2026-04-26 03:48 | 18.03945 | -63.11929 | 19 ft | 7 kts | 79° |
| 2026-04-26 03:48 | 18.03952 | -63.11882 | 18 ft | 6 kts | 81° |
| 2026-04-26 03:48 | 18.03959 | -63.11826 | 18 ft | 17 kts | 82° |
| 2026-04-26 03:49 | 18.04028 | -63.11354 | 19 ft | 115 kts | 80° |
| 2026-04-26 03:49 | 18.04174 | -63.10320 | 123 ft | 159 kts | 83° |
| 2026-04-26 03:49 | 18.04321 | -63.09061 | 501 ft | 185 kts | 84° |
| 2026-04-26 03:49 | 18.04205 | -63.07647 | 941 ft | 195 kts | 102° |
| 2026-04-26 03:50 | 18.03467 | -63.06480 | 1445 ft | 210 kts | 144° |
| 2026-04-26 03:50 | 18.02005 | -63.05989 | 1624 ft | 237 kts | 176° |
| 2026-04-26 03:50 | 18.00351 | -63.06539 | 1921 ft | 266 kts | 216° |
| 2026-04-26 03:50 | 17.99212 | -63.08036 | 2985 ft | 260 kts | 237° |
| 2026-04-26 03:51 | 17.98313 | -63.09678 | 3984 ft | 260 kts | 239° |
| 2026-04-26 03:51 | 17.97379 | -63.11316 | 4888 ft | 263 kts | 237° |
| 2026-04-26 03:51 | 17.96400 | -63.12925 | 5699 ft | 267 kts | 237° |
| 2026-04-26 03:51 | 17.95399 | -63.14579 | 6514 ft | 270 kts | 237° |
| 2026-04-26 03:52 | 17.94395 | -63.16270 | 7299 ft | 274 kts | 238° |
| 2026-04-26 03:52 | 17.93383 | -63.17971 | 8187 ft | 277 kts | 238° |
| 2026-04-26 03:52 | 17.92355 | -63.19690 | 9087 ft | 280 kts | 238° |
| 2026-04-26 03:52 | 17.91317 | -63.21442 | 9896 ft | 284 kts | 239° |
| 2026-04-26 03:53 | 17.90692 | -63.23450 | 10198 ft | 305 kts | 264° |
| 2026-04-26 03:53 | 17.90784 | -63.25774 | 10220 ft | 333 kts | 274° |
| 2026-04-26 03:53 | 17.90995 | -63.28273 | 10460 ft | 349 kts | 274° |
| 2026-04-26 03:53 | 17.91167 | -63.30813 | 11193 ft | 349 kts | 272° |
| 2026-04-26 03:54 | 17.91308 | -63.33366 | 11852 ft | 351 kts | 272° |
| 2026-04-26 03:54 | 17.91466 | -63.35935 | 12504 ft | 354 kts | 273° |
| 2026-04-26 03:54 | 17.91640 | -63.38519 | 13163 ft | 356 kts | 273° |
| 2026-04-26 03:54 | 17.91808 | -63.41119 | 13812 ft | 358 kts | 272° |
| 2026-04-26 03:55 | 17.91969 | -63.43737 | 14375 ft | 360 kts | 272° |
| 2026-04-26 03:55 | 17.92133 | -63.46369 | 14928 ft | 363 kts | 272° |
| 2026-04-26 03:55 | 17.92302 | -63.49027 | 15467 ft | 366 kts | 272° |
| 2026-04-26 03:55 | 17.92471 | -63.51706 | 16020 ft | 369 kts | 272° |
| 2026-04-26 03:56 | 17.92637 | -63.54372 | 16577 ft | 372 kts | 272° |
| 2026-04-26 03:56 | 17.92807 | -63.57095 | 17154 ft | 375 kts | 272° |
| 2026-04-26 03:56 | 17.92978 | -63.59838 | 17741 ft | 378 kts | 272° |
| 2026-04-26 03:56 | 17.93150 | -63.62610 | 18327 ft | 382 kts | 272° |
| 2026-04-26 03:57 | 17.93316 | -63.65402 | 18847 ft | 384 kts | 271° |
| 2026-04-26 03:57 | 17.93115 | -63.68197 | 19355 ft | 385 kts | 258° |
| 2026-04-26 03:57 | 17.92578 | -63.70962 | 19934 ft | 387 kts | 257° |
| 2026-04-26 03:57 | 17.92046 | -63.73744 | 20500 ft | 390 kts | 257° |
| 2026-04-26 03:58 | 17.91523 | -63.76550 | 21050 ft | 394 kts | 257° |
| 2026-04-26 03:58 | 17.90985 | -63.79382 | 21609 ft | 397 kts | 257° |
| 2026-04-26 03:58 | 17.90436 | -63.82230 | 22167 ft | 400 kts | 257° |
| 2026-04-26 03:58 | 17.89884 | -63.85107 | 22705 ft | 404 kts | 257° |
| 2026-04-26 03:59 | 17.89333 | -63.88005 | 23265 ft | 407 kts | 257° |
| 2026-04-26 03:59 | 17.88774 | -63.90932 | 23777 ft | 410 kts | 257° |
| 2026-04-26 03:59 | 17.88209 | -63.93877 | 24276 ft | 412 kts | 257° |
| 2026-04-26 03:59 | 17.87642 | -63.96830 | 24781 ft | 413 kts | 257° |
| 2026-04-26 04:00 | 17.87073 | -63.99800 | 25281 ft | 415 kts | 257° |
| 2026-04-26 04:00 | 17.86501 | -64.02777 | 25786 ft | 417 kts | 257° |
| 2026-04-26 04:00 | 17.85927 | -64.05768 | 26285 ft | 419 kts | 257° |
| 2026-04-26 04:00 | 17.85356 | -64.08734 | 26772 ft | 421 kts | 257° |
| 2026-04-26 04:01 | 17.84767 | -64.11795 | 27274 ft | 423 kts | 257° |
| 2026-04-26 04:01 | 17.84189 | -64.14796 | 27752 ft | 426 kts | 257° |
| 2026-04-26 04:01 | 17.83599 | -64.17854 | 28242 ft | 428 kts | 257° |
| 2026-04-26 04:01 | 17.83007 | -64.20919 | 28716 ft | 430 kts | 257° |
| 2026-04-26 04:02 | 17.82412 | -64.24004 | 29186 ft | 432 kts | 257° |
| 2026-04-26 04:02 | 17.81812 | -64.27103 | 29642 ft | 434 kts | 257° |
| 2026-04-26 04:02 | 17.81210 | -64.30216 | 30080 ft | 437 kts | 257° |
| 2026-04-26 04:02 | 17.80604 | -64.33348 | 30460 ft | 439 kts | 257° |
| 2026-04-26 04:03 | 17.79995 | -64.36491 | 30835 ft | 441 kts | 257° |
| 2026-04-26 04:03 | 17.79384 | -64.39640 | 31326 ft | 439 kts | 257° |
| 2026-04-26 04:03 | 17.78778 | -64.42764 | 31891 ft | 436 kts | 257° |
| 2026-04-26 04:03 | 17.78173 | -64.45872 | 32403 ft | 434 kts | 256° |
| 2026-04-26 04:04 | 17.77570 | -64.48968 | 32914 ft | 432 kts | 256° |
| 2026-04-26 04:04 | 17.76970 | -64.52052 | 33433 ft | 431 kts | 256° |
| 2026-04-26 04:04 | 17.76371 | -64.55127 | 33958 ft | 429 kts | 256° |
| 2026-04-26 04:04 | 17.75775 | -64.58181 | 34423 ft | 427 kts | 256° |
| 2026-04-26 04:05 | 17.75181 | -64.61225 | 34906 ft | 424 kts | 256° |
| 2026-04-26 04:05 | 17.74590 | -64.64252 | 35396 ft | 422 kts | 256° |
| 2026-04-26 04:05 | 17.74001 | -64.67261 | 35878 ft | 420 kts | 256° |
| 2026-04-26 04:05 | 17.73412 | -64.70254 | 36336 ft | 418 kts | 256° |
| 2026-04-26 04:06 | 17.72764 | -64.73175 | 36814 ft | 416 kts | 255° |
| 2026-04-26 04:06 | 17.72104 | -64.76159 | 37353 ft | 413 kts | 255° |
| 2026-04-26 04:06 | 17.71472 | -64.79046 | 37870 ft | 411 kts | 255° |
| 2026-04-26 04:06 | 17.70830 | -64.81961 | 38394 ft | 409 kts | 255° |
| 2026-04-26 04:07 | 17.70187 | -64.84860 | 38891 ft | 407 kts | 255° |
| 2026-04-26 04:07 | 17.69548 | -64.87747 | 39341 ft | 405 kts | 255° |
| 2026-04-26 04:07 | 17.68914 | -64.90614 | 39785 ft | 402 kts | 255° |
| 2026-04-26 04:07 | 17.68282 | -64.93470 | 39994 ft | 406 kts | 255° |
| 2026-04-26 04:08 | 17.67632 | -64.96391 | 39995 ft | 415 kts | 255° |
| 2026-04-26 04:08 | 17.66296 | -65.02414 | 40009 ft | 433 kts | 255° |
| 2026-04-26 04:09 | 17.64904 | -65.08676 | 40009 ft | 449 kts | 255° |
| 2026-04-26 04:09 | 17.63465 | -65.15143 | 39999 ft | 459 kts | 255° |
| 2026-04-26 04:10 | 17.62011 | -65.21664 | 40003 ft | 460 kts | 255° |
| 2026-04-26 04:10 | 17.60798 | -65.27097 | 40005 ft | 461 kts | 255° |
| 2026-04-26 04:11 | 17.59334 | -65.33641 | 39997 ft | 461 kts | 254° |
| 2026-04-26 04:11 | 17.57872 | -65.40169 | 39998 ft | 460 kts | 254° |
| 2026-04-26 04:12 | 17.56404 | -65.46709 | 39997 ft | 460 kts | 254° |
| 2026-04-26 04:12 | 17.54937 | -65.53238 | 39997 ft | 460 kts | 254° |
| 2026-04-26 04:13 | 17.53467 | -65.59768 | 40001 ft | 460 kts | 254° |
| 2026-04-26 04:13 | 17.52008 | -65.66243 | 39986 ft | 457 kts | 254° |
| 2026-04-26 04:14 | 17.50534 | -65.72761 | 39987 ft | 460 kts | 254° |
| 2026-04-26 04:14 | 17.49651 | -65.79416 | 39985 ft | 466 kts | 265° |
| 2026-04-26 04:15 | 17.50090 | -65.86226 | 39996 ft | 469 kts | 271° |
| 2026-04-26 04:15 | 17.50637 | -65.93036 | 40002 ft | 469 kts | 270° |
| 2026-04-26 04:16 | 17.51208 | -65.99829 | 39998 ft | 466 kts | 270° |
| 2026-04-26 04:16 | 17.51758 | -66.06600 | 39991 ft | 467 kts | 270° |
| 2026-04-26 04:17 | 17.52316 | -66.13373 | 39991 ft | 467 kts | 270° |
| 2026-04-26 04:17 | 17.52867 | -66.20160 | 39985 ft | 467 kts | 270° |
| 2026-04-26 04:18 | 17.53418 | -66.26942 | 39993 ft | 467 kts | 270° |
| 2026-04-26 04:18 | 17.53962 | -66.33669 | 39991 ft | 466 kts | 270° |
| 2026-04-26 04:19 | 17.54506 | -66.40438 | 39990 ft | 466 kts | 270° |
| 2026-04-26 04:19 | 17.55049 | -66.47210 | 39990 ft | 466 kts | 270° |
| 2026-04-26 04:20 | 17.55588 | -66.53980 | 39989 ft | 466 kts | 270° |
| 2026-04-26 04:20 | 17.56127 | -66.60751 | 39996 ft | 465 kts | 270° |
| 2026-04-26 04:21 | 17.56659 | -66.67493 | 39995 ft | 464 kts | 270° |
| 2026-04-26 04:21 | 17.57190 | -66.74235 | 39995 ft | 464 kts | 270° |
| 2026-04-26 04:22 | 17.57719 | -66.80986 | 39992 ft | 464 kts | 270° |
| 2026-04-26 04:22 | 17.58245 | -66.87728 | 39993 ft | 464 kts | 270° |
| 2026-04-26 04:23 | 17.58770 | -66.94482 | 39993 ft | 465 kts | 270° |
| 2026-04-26 04:23 | 17.59289 | -67.01191 | 39990 ft | 465 kts | 270° |
| 2026-04-26 04:24 | 17.59810 | -67.07944 | 39989 ft | 465 kts | 270° |
| 2026-04-26 04:24 | 17.60327 | -67.14693 | 39988 ft | 465 kts | 270° |
| 2026-04-26 04:25 | 17.60842 | -67.21444 | 39994 ft | 465 kts | 270° |
| 2026-04-26 04:25 | 17.61355 | -67.28198 | 39990 ft | 466 kts | 270° |
| 2026-04-26 04:26 | 17.61868 | -67.34980 | 39988 ft | 466 kts | 270° |
| 2026-04-26 04:26 | 17.62378 | -67.41747 | 39985 ft | 465 kts | 270° |
| 2026-04-26 04:27 | 17.62885 | -67.48509 | 39986 ft | 465 kts | 270° |
| 2026-04-26 04:27 | 17.63389 | -67.55272 | 39991 ft | 465 kts | 270° |
| 2026-04-26 04:28 | 17.63893 | -67.62060 | 39993 ft | 468 kts | 270° |
| 2026-04-26 04:28 | 17.64392 | -67.68811 | 39989 ft | 467 kts | 270° |
| 2026-04-26 04:29 | 17.64892 | -67.75602 | 39983 ft | 467 kts | 270° |
| 2026-04-26 04:29 | 17.65389 | -67.82389 | 39980 ft | 467 kts | 270° |
| 2026-04-26 04:30 | 17.65884 | -67.89184 | 39982 ft | 467 kts | 270° |
| 2026-04-26 04:30 | 17.66377 | -67.95984 | 39983 ft | 467 kts | 269° |
| 2026-04-26 04:31 | 17.66877 | -68.02772 | 39983 ft | 467 kts | 270° |
| 2026-04-26 04:31 | 17.67479 | -68.09562 | 39984 ft | 468 kts | 270° |
| 2026-04-26 04:32 | 17.68026 | -68.16355 | 39984 ft | 467 kts | 270° |
| 2026-04-26 04:32 | 17.68597 | -68.23141 | 39989 ft | 467 kts | 270° |
| 2026-04-26 04:33 | 17.69152 | -68.29909 | 39982 ft | 466 kts | 270° |
| 2026-04-26 04:33 | 17.69709 | -68.36682 | 39981 ft | 466 kts | 270° |
| 2026-04-26 04:34 | 17.70264 | -68.43463 | 39984 ft | 466 kts | 270° |
| 2026-04-26 04:34 | 17.70812 | -68.50194 | 39985 ft | 466 kts | 270° |
| 2026-04-26 04:35 | 17.71361 | -68.56964 | 39988 ft | 465 kts | 270° |
| 2026-04-26 04:35 | 17.71907 | -68.63726 | 39986 ft | 465 kts | 270° |
| 2026-04-26 04:36 | 17.72452 | -68.70490 | 39989 ft | 465 kts | 270° |
| 2026-04-26 04:36 | 17.72994 | -68.77253 | 39990 ft | 465 kts | 270° |
| 2026-04-26 04:37 | 17.73534 | -68.84012 | 39991 ft | 465 kts | 270° |
| 2026-04-26 04:37 | 17.74073 | -68.90784 | 39984 ft | 464 kts | 270° |
| 2026-04-26 04:38 | 17.74606 | -68.97520 | 39981 ft | 464 kts | 270° |
| 2026-04-26 04:38 | 17.75138 | -69.04262 | 39979 ft | 464 kts | 270° |
| 2026-04-26 04:39 | 17.75667 | -69.11008 | 39985 ft | 464 kts | 270° |
| 2026-04-26 04:39 | 17.76191 | -69.17715 | 39987 ft | 464 kts | 270° |
| 2026-04-26 04:40 | 17.76686 | -69.24457 | 39985 ft | 463 kts | 270° |
| 2026-04-26 04:40 | 17.77085 | -69.31192 | 39981 ft | 463 kts | 270° |
| 2026-04-26 04:41 | 17.77537 | -69.37938 | 39986 ft | 463 kts | 270° |
| 2026-04-26 04:41 | 17.78077 | -69.44672 | 39983 ft | 463 kts | 270° |
| 2026-04-26 04:42 | 17.78616 | -69.51417 | 39984 ft | 463 kts | 271° |
| 2026-04-26 04:42 | 17.79157 | -69.58153 | 39978 ft | 463 kts | 271° |
| 2026-04-26 04:43 | 17.79692 | -69.64880 | 39981 ft | 463 kts | 271° |
| 2026-04-26 04:43 | 17.80226 | -69.71604 | 39982 ft | 463 kts | 271° |
| 2026-04-26 04:44 | 17.80758 | -69.78338 | 39986 ft | 463 kts | 271° |
| 2026-04-26 04:44 | 17.81283 | -69.85015 | 39986 ft | 463 kts | 271° |
| 2026-04-26 04:45 | 17.81810 | -69.91746 | 39981 ft | 462 kts | 271° |
| 2026-04-26 04:45 | 17.82306 | -69.98469 | 39980 ft | 462 kts | 270° |
| 2026-04-26 04:46 | 17.82698 | -70.05196 | 39977 ft | 462 kts | 270° |
| 2026-04-26 04:46 | 17.83152 | -70.11918 | 39976 ft | 462 kts | 270° |
| 2026-04-26 04:47 | 17.83563 | -70.18595 | 39971 ft | 462 kts | 270° |
| 2026-04-26 04:47 | 17.83995 | -70.25326 | 39971 ft | 463 kts | 270° |
| 2026-04-26 04:48 | 17.84627 | -70.35433 | 39979 ft | 462 kts | 270° |
| 2026-04-26 04:48 | 17.85074 | -70.42170 | 39977 ft | 463 kts | 270° |
| 2026-04-26 04:49 | 17.85559 | -70.48900 | 39976 ft | 463 kts | 270° |
| 2026-04-26 04:49 | 17.86013 | -70.55634 | 39978 ft | 463 kts | 270° |
| 2026-04-26 04:50 | 17.86483 | -70.62384 | 39973 ft | 464 kts | 270° |
| 2026-04-26 04:50 | 17.86941 | -70.69132 | 39973 ft | 463 kts | 270° |
| 2026-04-26 04:51 | 17.87402 | -70.75876 | 39977 ft | 463 kts | 270° |
| 2026-04-26 04:51 | 17.87858 | -70.82628 | 39977 ft | 463 kts | 270° |
| 2026-04-26 04:52 | 17.88312 | -70.89370 | 39989 ft | 463 kts | 270° |
| 2026-04-26 04:52 | 17.88764 | -70.96107 | 39985 ft | 463 kts | 270° |
| 2026-04-26 04:53 | 17.89213 | -71.02853 | 39987 ft | 463 kts | 270° |
| 2026-04-26 04:53 | 17.89660 | -71.09596 | 39987 ft | 463 kts | 270° |
| 2026-04-26 04:54 | 17.90104 | -71.16333 | 39987 ft | 463 kts | 270° |
| 2026-04-26 04:54 | 17.90544 | -71.23032 | 39987 ft | 463 kts | 270° |
| 2026-04-26 04:55 | 17.90984 | -71.29780 | 39991 ft | 462 kts | 270° |
| 2026-04-26 04:55 | 17.91421 | -71.36514 | 39989 ft | 462 kts | 270° |
| 2026-04-26 04:56 | 17.91856 | -71.43253 | 39986 ft | 463 kts | 270° |
| 2026-04-26 04:56 | 17.92289 | -71.49993 | 39987 ft | 462 kts | 270° |
| 2026-04-26 04:57 | 17.92719 | -71.56727 | 39980 ft | 462 kts | 270° |
| 2026-04-26 04:57 | 17.93147 | -71.63466 | 39980 ft | 462 kts | 270° |
| 2026-04-26 04:58 | 17.93085 | -71.70148 | 39973 ft | 460 kts | 265° |
| 2026-04-26 04:58 | 17.92944 | -71.76868 | 39972 ft | 460 kts | 266° |
| 2026-04-26 04:59 | 17.92796 | -71.82451 | 39973 ft | 460 kts | 265° |
| 2026-04-26 04:59 | 17.92628 | -71.89170 | 39968 ft | 460 kts | 265° |
| 2026-04-26 05:00 | 17.92457 | -71.95882 | 39968 ft | 460 kts | 265° |
| 2026-04-26 05:00 | 17.92244 | -72.02596 | 39964 ft | 460 kts | 265° |
| 2026-04-26 05:01 | 17.92036 | -72.09336 | 39964 ft | 463 kts | 265° |
| 2026-04-26 05:01 | 17.91825 | -72.16081 | 39962 ft | 462 kts | 265° |
| 2026-04-26 05:02 | 17.91611 | -72.22820 | 39962 ft | 462 kts | 265° |
| 2026-04-26 05:02 | 17.91394 | -72.29561 | 39967 ft | 462 kts | 265° |
| 2026-04-26 05:03 | 17.91176 | -72.36305 | 39968 ft | 462 kts | 265° |
| 2026-04-26 05:03 | 17.90947 | -72.43005 | 39965 ft | 462 kts | 264° |
| 2026-04-26 05:04 | 17.90727 | -72.49753 | 39962 ft | 462 kts | 265° |
| 2026-04-26 05:04 | 17.90500 | -72.56505 | 39965 ft | 462 kts | 265° |
| 2026-04-26 05:05 | 17.90271 | -72.63251 | 39962 ft | 462 kts | 265° |
| 2026-04-26 05:05 | 17.90042 | -72.69995 | 39961 ft | 462 kts | 265° |
| 2026-04-26 05:06 | 17.89810 | -72.76738 | 39966 ft | 462 kts | 265° |
| 2026-04-26 05:06 | 17.89581 | -72.83438 | 39962 ft | 462 kts | 265° |
| 2026-04-26 05:07 | 17.89376 | -72.90193 | 39957 ft | 462 kts | 265° |
| 2026-04-26 05:07 | 17.89155 | -72.96934 | 39957 ft | 462 kts | 265° |
| 2026-04-26 05:08 | 17.88939 | -73.03690 | 39958 ft | 462 kts | 265° |
| 2026-04-26 05:08 | 17.88717 | -73.10442 | 39958 ft | 462 kts | 265° |
| 2026-04-26 05:09 | 17.88494 | -73.17186 | 39958 ft | 462 kts | 265° |
| 2026-04-26 05:09 | 17.88270 | -73.23934 | 39957 ft | 462 kts | 265° |
| 2026-04-26 05:10 | 17.88041 | -73.30678 | 39953 ft | 462 kts | 265° |
| 2026-04-26 05:10 | 17.87810 | -73.37381 | 39952 ft | 463 kts | 265° |
| 2026-04-26 05:11 | 17.87567 | -73.44124 | 39953 ft | 462 kts | 265° |
| 2026-04-26 05:11 | 17.87327 | -73.50870 | 39952 ft | 462 kts | 265° |
| 2026-04-26 05:12 | 17.87082 | -73.57618 | 39951 ft | 463 kts | 265° |
| 2026-04-26 05:12 | 17.86835 | -73.64367 | 39951 ft | 463 kts | 265° |
| 2026-04-26 05:13 | 17.86587 | -73.71128 | 39952 ft | 463 kts | 265° |
| 2026-04-26 05:13 | 17.86335 | -73.77839 | 39952 ft | 463 kts | 265° |
| 2026-04-26 05:14 | 17.86083 | -73.84599 | 39955 ft | 463 kts | 265° |
| 2026-04-26 05:14 | 17.85825 | -73.91362 | 39955 ft | 463 kts | 265° |
| 2026-04-26 05:15 | 17.85566 | -73.98118 | 39952 ft | 463 kts | 265° |
| 2026-04-26 05:15 | 17.85304 | -74.04871 | 39951 ft | 463 kts | 265° |
| 2026-04-26 05:16 | 17.85041 | -74.11622 | 39953 ft | 463 kts | 265° |
| 2026-04-26 05:16 | 17.84893 | -74.18393 | 39949 ft | 464 kts | 266° |
| 2026-04-26 05:17 | 17.84784 | -74.25162 | 39944 ft | 464 kts | 266° |
| 2026-04-26 05:17 | 17.84672 | -74.31888 | 39944 ft | 464 kts | 266° |
| 2026-04-26 05:18 | 17.84558 | -74.38657 | 39950 ft | 463 kts | 266° |
| 2026-04-26 05:18 | 17.84442 | -74.45413 | 39949 ft | 463 kts | 266° |
| 2026-04-26 05:19 | 17.84323 | -74.52168 | 39949 ft | 463 kts | 266° |
| 2026-04-26 05:19 | 17.84202 | -74.58927 | 39949 ft | 463 kts | 266° |
| 2026-04-26 05:20 | 17.84079 | -74.65685 | 39953 ft | 463 kts | 266° |
| 2026-04-26 05:20 | 17.83954 | -74.72455 | 39952 ft | 463 kts | 266° |
| 2026-04-26 05:21 | 17.83829 | -74.79213 | 39949 ft | 463 kts | 266° |
| 2026-04-26 05:21 | 17.83700 | -74.85978 | 39949 ft | 463 kts | 266° |
| 2026-04-26 05:22 | 17.83569 | -74.92744 | 39946 ft | 465 kts | 266° |
| 2026-04-26 05:22 | 17.83436 | -74.99540 | 39937 ft | 467 kts | 266° |
| 2026-04-26 05:23 | 17.83300 | -75.06355 | 39952 ft | 467 kts | 266° |
| 2026-04-26 05:23 | 17.83162 | -75.13123 | 39947 ft | 467 kts | 266° |
| 2026-04-26 05:24 | 17.83020 | -75.19947 | 39947 ft | 467 kts | 266° |
| 2026-04-26 05:24 | 17.82877 | -75.26768 | 39947 ft | 467 kts | 266° |
| 2026-04-26 05:25 | 17.82731 | -75.33583 | 39946 ft | 467 kts | 266° |
| 2026-04-26 05:25 | 17.82583 | -75.40405 | 39946 ft | 467 kts | 266° |
| 2026-04-26 05:26 | 17.82432 | -75.47231 | 39951 ft | 468 kts | 266° |
| 2026-04-26 05:26 | 17.82279 | -75.54052 | 39949 ft | 468 kts | 266° |
| 2026-04-26 05:27 | 17.82125 | -75.60830 | 39946 ft | 468 kts | 266° |
| 2026-04-26 05:27 | 17.81967 | -75.67657 | 39946 ft | 467 kts | 266° |
| 2026-04-26 05:28 | 17.81807 | -75.74477 | 39947 ft | 468 kts | 266° |
| 2026-04-26 05:28 | 17.81644 | -75.81295 | 39949 ft | 467 kts | 266° |
| 2026-04-26 05:29 | 17.81480 | -75.88101 | 39948 ft | 466 kts | 266° |
| 2026-04-26 05:29 | 17.81313 | -75.94904 | 39948 ft | 466 kts | 266° |
| 2026-04-26 05:30 | 17.81142 | -76.01714 | 39946 ft | 467 kts | 266° |
| 2026-04-26 05:30 | 17.80969 | -76.08526 | 39949 ft | 466 kts | 266° |
| 2026-04-26 05:31 | 17.80794 | -76.15327 | 39947 ft | 467 kts | 266° |
| 2026-04-26 05:31 | 17.80616 | -76.22105 | 39947 ft | 467 kts | 266° |
| 2026-04-26 05:32 | 17.80436 | -76.28922 | 39944 ft | 467 kts | 266° |
| 2026-04-26 05:32 | 17.80254 | -76.35732 | 39944 ft | 467 kts | 266° |
| 2026-04-26 05:33 | 17.80069 | -76.42545 | 39948 ft | 467 kts | 266° |
| 2026-04-26 05:33 | 17.79881 | -76.49354 | 39947 ft | 467 kts | 266° |
| 2026-04-26 05:34 | 17.79691 | -76.56161 | 39947 ft | 467 kts | 266° |
| 2026-04-26 05:34 | 17.79499 | -76.62975 | 39947 ft | 467 kts | 266° |
| 2026-04-26 05:35 | 17.79305 | -76.69783 | 39947 ft | 467 kts | 266° |
| 2026-04-26 05:35 | 17.79109 | -76.76546 | 39947 ft | 467 kts | 266° |
| 2026-04-26 05:36 | 17.78910 | -76.83359 | 39948 ft | 467 kts | 266° |
| 2026-04-26 05:36 | 17.78709 | -76.90172 | 39949 ft | 467 kts | 266° |
| 2026-04-26 05:37 | 17.78505 | -76.96983 | 39945 ft | 467 kts | 266° |
| 2026-04-26 05:37 | 17.78299 | -77.03786 | 39946 ft | 467 kts | 266° |
| 2026-04-26 05:38 | 17.78090 | -77.10592 | 39951 ft | 467 kts | 266° |
| 2026-04-26 05:38 | 17.77879 | -77.17401 | 39950 ft | 467 kts | 266° |
| 2026-04-26 05:39 | 17.77666 | -77.24204 | 39954 ft | 467 kts | 266° |
| 2026-04-26 05:39 | 17.77450 | -77.31006 | 39954 ft | 467 kts | 266° |
| 2026-04-26 05:40 | 17.77234 | -77.37767 | 39953 ft | 467 kts | 266° |
| 2026-04-26 05:40 | 17.77013 | -77.44576 | 39953 ft | 467 kts | 266° |
| 2026-04-26 05:41 | 17.76791 | -77.51378 | 39954 ft | 467 kts | 266° |
| 2026-04-26 05:41 | 17.76566 | -77.58182 | 39949 ft | 467 kts | 266° |
| 2026-04-26 05:42 | 17.76339 | -77.64982 | 39943 ft | 466 kts | 266° |
| 2026-04-26 05:42 | 17.76109 | -77.71788 | 39942 ft | 466 kts | 266° |
| 2026-04-26 05:43 | 17.75876 | -77.78596 | 39941 ft | 466 kts | 266° |
| 2026-04-26 05:43 | 17.75644 | -77.85348 | 39939 ft | 466 kts | 266° |
| 2026-04-26 05:44 | 17.75408 | -77.92149 | 39943 ft | 466 kts | 266° |
| 2026-04-26 05:44 | 17.75170 | -77.98941 | 39942 ft | 466 kts | 266° |
| 2026-04-26 05:45 | 17.74929 | -78.05732 | 39939 ft | 466 kts | 266° |
| 2026-04-26 05:45 | 17.74686 | -78.12529 | 39939 ft | 466 kts | 266° |
| 2026-04-26 05:46 | 17.74441 | -78.19319 | 39939 ft | 466 kts | 266° |
| 2026-04-26 05:46 | 17.74194 | -78.26111 | 39939 ft | 466 kts | 266° |
| 2026-04-26 05:47 | 17.73986 | -78.31760 | 39938 ft | 466 kts | 266° |
| 2026-04-26 05:47 | 17.73734 | -78.38555 | 39938 ft | 466 kts | 266° |
| 2026-04-26 05:48 | 17.73439 | -78.46451 | 39937 ft | 466 kts | 266° |
| 2026-04-26 05:48 | 17.73225 | -78.52099 | 39937 ft | 466 kts | 266° |
| 2026-04-26 05:49 | 17.72836 | -78.62292 | 39939 ft | 466 kts | 265° |
| 2026-04-26 05:50 | 17.72573 | -78.69092 | 39933 ft | 466 kts | 265° |
| 2026-04-26 05:50 | 17.72309 | -78.75876 | 39930 ft | 465 kts | 265° |
| 2026-04-26 05:51 | 17.72043 | -78.82656 | 39936 ft | 465 kts | 265° |
| 2026-04-26 05:51 | 17.71774 | -78.89440 | 39937 ft | 465 kts | 265° |
| 2026-04-26 05:52 | 17.71502 | -78.96225 | 39931 ft | 465 kts | 265° |
| 2026-04-26 05:52 | 17.71229 | -79.03011 | 39931 ft | 465 kts | 265° |
| 2026-04-26 05:53 | 17.70954 | -79.09757 | 39933 ft | 465 kts | 265° |
| 2026-04-26 05:53 | 17.70677 | -79.16520 | 39931 ft | 464 kts | 265° |
| 2026-04-26 05:54 | 17.70397 | -79.23291 | 39931 ft | 464 kts | 265° |
| 2026-04-26 05:54 | 17.70113 | -79.30060 | 39932 ft | 464 kts | 265° |
| 2026-04-26 05:55 | 17.69828 | -79.36826 | 39922 ft | 464 kts | 265° |
| 2026-04-26 05:55 | 17.69539 | -79.43593 | 39927 ft | 464 kts | 265° |
| 2026-04-26 05:56 | 17.69249 | -79.50352 | 39933 ft | 463 kts | 266° |
| 2026-04-26 05:56 | 17.68958 | -79.57104 | 39933 ft | 463 kts | 265° |
| 2026-04-26 05:57 | 17.68665 | -79.63811 | 39933 ft | 463 kts | 265° |
| 2026-04-26 05:57 | 17.68368 | -79.70560 | 39931 ft | 464 kts | 265° |
| 2026-04-26 05:58 | 17.68069 | -79.77315 | 39936 ft | 464 kts | 265° |
| 2026-04-26 05:58 | 17.67768 | -79.84067 | 39933 ft | 464 kts | 266° |
| 2026-04-26 05:59 | 17.67465 | -79.90818 | 39932 ft | 464 kts | 266° |
| 2026-04-26 05:59 | 17.67158 | -79.97575 | 39931 ft | 464 kts | 266° |
| 2026-04-26 06:00 | 17.66850 | -80.04330 | 39931 ft | 464 kts | 266° |
| 2026-04-26 06:00 | 17.66540 | -80.11085 | 39932 ft | 463 kts | 266° |
| 2026-04-26 06:01 | 17.66227 | -80.17830 | 39931 ft | 463 kts | 266° |
| 2026-04-26 06:01 | 17.65912 | -80.24582 | 39931 ft | 463 kts | 266° |
| 2026-04-26 06:02 | 17.65595 | -80.31324 | 39931 ft | 463 kts | 266° |
| 2026-04-26 06:02 | 17.65276 | -80.38071 | 39932 ft | 463 kts | 266° |
| 2026-04-26 06:03 | 17.64954 | -80.44820 | 39929 ft | 463 kts | 266° |
| 2026-04-26 06:03 | 17.64632 | -80.51520 | 39929 ft | 463 kts | 266° |
| 2026-04-26 06:04 | 17.64305 | -80.58275 | 39929 ft | 464 kts | 266° |
| 2026-04-26 06:04 | 17.63976 | -80.65034 | 39930 ft | 464 kts | 266° |
| 2026-04-26 06:05 | 17.63644 | -80.71786 | 39929 ft | 463 kts | 266° |
| 2026-04-26 06:05 | 17.63299 | -80.78531 | 39929 ft | 463 kts | 265° |
| 2026-04-26 06:06 | 17.62932 | -80.85273 | 39928 ft | 463 kts | 265° |
| 2026-04-26 06:06 | 17.62577 | -80.91978 | 39930 ft | 464 kts | 265° |
| 2026-04-26 06:07 | 17.62211 | -80.98725 | 39930 ft | 463 kts | 265° |
| 2026-04-26 06:07 | 17.61846 | -81.05466 | 39929 ft | 463 kts | 265° |
| 2026-04-26 06:08 | 17.61478 | -81.12210 | 39927 ft | 463 kts | 265° |
| 2026-04-26 06:08 | 17.61107 | -81.18949 | 39928 ft | 463 kts | 265° |
| 2026-04-26 06:09 | 17.60734 | -81.25695 | 39924 ft | 463 kts | 265° |
| 2026-04-26 06:09 | 17.60358 | -81.32451 | 39918 ft | 465 kts | 265° |
| 2026-04-26 06:10 | 17.59983 | -81.39169 | 39917 ft | 465 kts | 265° |
| 2026-04-26 06:10 | 17.59602 | -81.45929 | 39915 ft | 465 kts | 265° |
| 2026-04-26 06:11 | 17.59219 | -81.52689 | 39916 ft | 465 kts | 265° |
| 2026-04-26 06:11 | 17.58833 | -81.59452 | 39916 ft | 464 kts | 265° |
| 2026-04-26 06:12 | 17.58446 | -81.66213 | 39916 ft | 464 kts | 265° |
| 2026-04-26 06:12 | 17.58055 | -81.72985 | 39915 ft | 465 kts | 265° |
| 2026-04-26 06:13 | 17.57665 | -81.79711 | 39918 ft | 465 kts | 265° |
| 2026-04-26 06:13 | 17.57269 | -81.86493 | 39908 ft | 469 kts | 265° |
| 2026-04-26 06:14 | 17.56869 | -81.93309 | 39908 ft | 468 kts | 265° |
| 2026-04-26 06:14 | 17.56467 | -82.00119 | 39908 ft | 468 kts | 265° |
| 2026-04-26 06:15 | 17.56058 | -82.06926 | 39896 ft | 467 kts | 265° |
| 2026-04-26 06:15 | 17.55518 | -82.13723 | 39904 ft | 467 kts | 264° |
| 2026-04-26 06:16 | 17.55021 | -82.20521 | 39900 ft | 468 kts | 265° |
| 2026-04-26 06:16 | 17.54509 | -82.27256 | 40104 ft | 463 kts | 264° |
| 2026-04-26 06:17 | 17.53994 | -82.34028 | 40090 ft | 470 kts | 264° |
| 2026-04-26 06:17 | 17.53479 | -82.40835 | 39916 ft | 467 kts | 264° |
| 2026-04-26 06:18 | 17.52957 | -82.47628 | 39920 ft | 468 kts | 264° |
| 2026-04-26 06:18 | 17.52435 | -82.54442 | 39920 ft | 468 kts | 264° |
| 2026-04-26 06:19 | 17.51909 | -82.61252 | 39910 ft | 469 kts | 264° |
| 2026-04-26 06:19 | 17.51382 | -82.68053 | 39910 ft | 469 kts | 264° |
| 2026-04-26 06:20 | 17.50855 | -82.74814 | 39910 ft | 469 kts | 264° |
| 2026-04-26 06:20 | 17.50323 | -82.81616 | 39909 ft | 469 kts | 264° |
| 2026-04-26 06:21 | 17.49788 | -82.88433 | 39910 ft | 469 kts | 264° |
| 2026-04-26 06:21 | 17.49251 | -82.95241 | 39911 ft | 469 kts | 264° |
| 2026-04-26 06:22 | 17.48711 | -83.02053 | 39910 ft | 469 kts | 264° |
| 2026-04-26 06:22 | 17.48169 | -83.08862 | 39907 ft | 469 kts | 264° |
| 2026-04-26 06:23 | 17.47625 | -83.15676 | 39910 ft | 469 kts | 264° |
| 2026-04-26 06:23 | 17.47077 | -83.22498 | 39905 ft | 470 kts | 264° |
| 2026-04-26 06:24 | 17.46527 | -83.29323 | 39906 ft | 470 kts | 264° |
| 2026-04-26 06:24 | 17.45974 | -83.36151 | 39906 ft | 470 kts | 264° |
| 2026-04-26 06:25 | 17.45423 | -83.42933 | 39908 ft | 470 kts | 264° |
| 2026-04-26 06:25 | 17.44865 | -83.49755 | 39905 ft | 470 kts | 264° |
| 2026-04-26 06:26 | 17.44305 | -83.56586 | 39903 ft | 472 kts | 264° |
| 2026-04-26 06:26 | 17.43741 | -83.63445 | 39902 ft | 472 kts | 264° |
| 2026-04-26 06:27 | 17.43174 | -83.70298 | 39902 ft | 472 kts | 264° |
| 2026-04-26 06:27 | 17.42605 | -83.77150 | 39901 ft | 472 kts | 264° |
| 2026-04-26 06:28 | 17.42037 | -83.83958 | 39902 ft | 472 kts | 264° |
| 2026-04-26 06:28 | 17.41463 | -83.90811 | 39903 ft | 472 kts | 264° |
| 2026-04-26 06:29 | 17.41215 | -83.97698 | 39892 ft | 475 kts | 272° |
| 2026-04-26 06:29 | 17.41498 | -84.04609 | 39898 ft | 475 kts | 271° |
| 2026-04-26 06:30 | 17.41759 | -84.11522 | 39901 ft | 475 kts | 271° |
| 2026-04-26 06:30 | 17.42037 | -84.18432 | 39902 ft | 475 kts | 271° |
| 2026-04-26 06:31 | 17.42295 | -84.25299 | 39896 ft | 475 kts | 271° |
| 2026-04-26 06:31 | 17.42563 | -84.32214 | 39896 ft | 476 kts | 271° |
| 2026-04-26 06:32 | 17.42824 | -84.39147 | 39898 ft | 476 kts | 271° |
| 2026-04-26 06:32 | 17.43085 | -84.46074 | 39895 ft | 476 kts | 271° |
| 2026-04-26 06:33 | 17.43342 | -84.53006 | 39891 ft | 476 kts | 271° |
| 2026-04-26 06:33 | 17.43597 | -84.59930 | 39891 ft | 476 kts | 271° |
| 2026-04-26 06:34 | 17.43850 | -84.66856 | 39887 ft | 476 kts | 271° |
| 2026-04-26 06:34 | 17.44101 | -84.73804 | 39888 ft | 477 kts | 271° |
| 2026-04-26 06:35 | 17.44350 | -84.80758 | 39889 ft | 477 kts | 271° |
| 2026-04-26 06:35 | 17.44596 | -84.87700 | 39889 ft | 477 kts | 271° |
| 2026-04-26 06:36 | 17.44838 | -84.94604 | 39889 ft | 477 kts | 271° |
| 2026-04-26 06:36 | 17.45077 | -85.01553 | 39887 ft | 477 kts | 271° |
| 2026-04-26 06:37 | 17.45315 | -85.08502 | 39889 ft | 479 kts | 270° |
| 2026-04-26 06:37 | 17.45555 | -85.15469 | 39887 ft | 478 kts | 272° |
| 2026-04-26 06:38 | 17.45753 | -85.21257 | 39887 ft | 478 kts | 271° |
| 2026-04-26 06:38 | 17.45982 | -85.28220 | 39884 ft | 478 kts | 271° |
| 2026-04-26 06:39 | 17.46215 | -85.35185 | 39884 ft | 478 kts | 271° |
| 2026-04-26 06:39 | 17.46441 | -85.42152 | 39885 ft | 478 kts | 271° |
| 2026-04-26 06:40 | 17.46667 | -85.49127 | 39876 ft | 480 kts | 272° |
| 2026-04-26 06:40 | 17.46891 | -85.56108 | 39877 ft | 480 kts | 272° |
| 2026-04-26 06:41 | 17.47112 | -85.63096 | 39878 ft | 480 kts | 272° |
| 2026-04-26 06:41 | 17.47329 | -85.70032 | 39878 ft | 479 kts | 272° |
| 2026-04-26 06:42 | 17.47546 | -85.77014 | 39874 ft | 480 kts | 272° |
| 2026-04-26 06:42 | 17.47759 | -85.83996 | 39874 ft | 480 kts | 272° |
| 2026-04-26 06:43 | 17.47970 | -85.90973 | 39875 ft | 480 kts | 272° |
| 2026-04-26 06:43 | 17.48180 | -85.97962 | 39875 ft | 480 kts | 272° |
| 2026-04-26 06:44 | 17.48386 | -86.04942 | 39875 ft | 480 kts | 272° |
| 2026-04-26 06:44 | 17.48590 | -86.11927 | 39875 ft | 480 kts | 272° |
| 2026-04-26 06:45 | 17.48791 | -86.18905 | 39875 ft | 480 kts | 272° |
| 2026-04-26 06:45 | 17.48990 | -86.25851 | 39875 ft | 480 kts | 272° |
| 2026-04-26 06:45 | 17.49088 | -86.29339 | 39721 ft | 472 kts | 272° |
| 2026-04-26 06:46 | 17.49183 | -86.32725 | 39095 ft | 459 kts | 272° |
| 2026-04-26 06:46 | 17.49276 | -86.36039 | 38486 ft | 451 kts | 272° |
| 2026-04-26 06:46 | 17.49367 | -86.39311 | 37862 ft | 449 kts | 272° |
| 2026-04-26 06:46 | 17.49457 | -86.42601 | 37273 ft | 454 kts | 271° |
| 2026-04-26 06:47 | 17.49549 | -86.45922 | 36676 ft | 459 kts | 271° |
| 2026-04-26 06:47 | 17.49640 | -86.49273 | 36064 ft | 462 kts | 271° |
| 2026-04-26 06:47 | 17.49731 | -86.52643 | 35454 ft | 464 kts | 271° |
| 2026-04-26 06:47 | 17.49822 | -86.56027 | 34841 ft | 466 kts | 271° |
| 2026-04-26 06:48 | 17.49913 | -86.59433 | 34225 ft | 468 kts | 271° |
| 2026-04-26 06:48 | 17.50004 | -86.62852 | 33574 ft | 470 kts | 271° |
| 2026-04-26 06:48 | 17.50094 | -86.66278 | 32948 ft | 472 kts | 271° |
| 2026-04-26 06:48 | 17.50184 | -86.69722 | 32324 ft | 474 kts | 272° |
| 2026-04-26 06:49 | 17.50274 | -86.73177 | 31699 ft | 476 kts | 272° |
| 2026-04-26 06:49 | 17.50365 | -86.76652 | 31069 ft | 478 kts | 272° |
| 2026-04-26 06:49 | 17.50454 | -86.80141 | 30438 ft | 481 kts | 272° |
| 2026-04-26 06:49 | 17.50543 | -86.83624 | 29783 ft | 476 kts | 272° |
| 2026-04-26 06:50 | 17.50630 | -86.87067 | 29139 ft | 471 kts | 272° |
| 2026-04-26 06:50 | 17.50716 | -86.90483 | 28521 ft | 468 kts | 272° |
| 2026-04-26 06:50 | 17.50802 | -86.93881 | 27906 ft | 465 kts | 273° |
| 2026-04-26 06:50 | 17.50885 | -86.97257 | 27295 ft | 462 kts | 273° |
| 2026-04-26 06:51 | 17.50967 | -87.00574 | 26697 ft | 460 kts | 273° |
| 2026-04-26 06:51 | 17.51130 | -87.07245 | 25491 ft | 455 kts | 273° |
| 2026-04-26 06:51 | 17.51210 | -87.10552 | 24894 ft | 452 kts | 274° |
| 2026-04-26 06:52 | 17.51289 | -87.13835 | 24299 ft | 450 kts | 274° |
| 2026-04-26 06:52 | 17.51367 | -87.17113 | 23709 ft | 448 kts | 274° |
| 2026-04-26 06:52 | 17.51444 | -87.20365 | 23076 ft | 445 kts | 274° |
| 2026-04-26 06:52 | 17.51519 | -87.23585 | 22487 ft | 440 kts | 274° |
| 2026-04-26 06:53 | 17.51594 | -87.26770 | 21911 ft | 436 kts | 274° |
| 2026-04-26 06:53 | 17.51668 | -87.29931 | 21340 ft | 431 kts | 274° |
| 2026-04-26 06:53 | 17.51740 | -87.33060 | 20768 ft | 427 kts | 274° |
| 2026-04-26 06:53 | 17.51811 | -87.36162 | 20212 ft | 424 kts | 274° |
| 2026-04-26 06:54 | 17.51880 | -87.39195 | 19663 ft | 420 kts | 274° |
| 2026-04-26 06:54 | 17.51949 | -87.42279 | 19105 ft | 416 kts | 274° |
| 2026-04-26 06:54 | 17.52017 | -87.45293 | 18559 ft | 412 kts | 274° |
| 2026-04-26 06:54 | 17.52083 | -87.48244 | 17999 ft | 408 kts | 274° |
| 2026-04-26 06:55 | 17.52148 | -87.51207 | 17448 ft | 405 kts | 274° |
| 2026-04-26 06:55 | 17.52214 | -87.54152 | 16916 ft | 404 kts | 274° |
| 2026-04-26 06:55 | 17.52276 | -87.57021 | 17106 ft | 403 kts | 272° |
| 2026-04-26 06:55 | 17.52339 | -87.59962 | 15816 ft | 392 kts | 273° |
| 2026-04-26 06:56 | 17.52400 | -87.62822 | 15346 ft | 394 kts | 274° |
| 2026-04-26 06:56 | 17.52471 | -87.65693 | 14827 ft | 394 kts | 274° |
| 2026-04-26 06:56 | 17.52546 | -87.68554 | 14310 ft | 393 kts | 274° |
| 2026-04-26 06:56 | 17.52614 | -87.71420 | 13787 ft | 393 kts | 274° |
| 2026-04-26 06:57 | 17.52680 | -87.74273 | 13242 ft | 391 kts | 273° |
| 2026-04-26 06:57 | 17.52748 | -87.77106 | 12806 ft | 387 kts | 273° |
| 2026-04-26 06:57 | 17.52816 | -87.79924 | 12361 ft | 386 kts | 273° |
| 2026-04-26 06:57 | 17.52880 | -87.82710 | 11856 ft | 371 kts | 274° |
| 2026-04-26 06:58 | 17.52935 | -87.85279 | 11380 ft | 344 kts | 273° |
| 2026-04-26 06:58 | 17.52992 | -87.87711 | 10947 ft | 323 kts | 274° |
| 2026-04-26 06:58 | 17.53048 | -87.89994 | 10528 ft | 305 kts | 273° |
| 2026-04-26 06:58 | 17.53100 | -87.92178 | 10138 ft | 296 kts | 273° |
| 2026-04-26 06:59 | 17.53149 | -87.94318 | 9755 ft | 292 kts | 273° |
| 2026-04-26 06:59 | 17.53197 | -87.96431 | 9353 ft | 289 kts | 273° |
| 2026-04-26 06:59 | 17.53245 | -87.98542 | 8965 ft | 290 kts | 273° |
| 2026-04-26 06:59 | 17.53293 | -88.00645 | 8586 ft | 289 kts | 273° |
| 2026-04-26 07:00 | 17.53340 | -88.02745 | 8211 ft | 288 kts | 273° |
| 2026-04-26 07:00 | 17.53387 | -88.04843 | 7835 ft | 288 kts | 272° |
| 2026-04-26 07:00 | 17.53433 | -88.06937 | 7456 ft | 288 kts | 273° |
| 2026-04-26 07:00 | 17.53480 | -88.09029 | 7076 ft | 287 kts | 272° |
| 2026-04-26 07:01 | 17.53526 | -88.11124 | 6698 ft | 287 kts | 272° |
| 2026-04-26 07:01 | 17.53572 | -88.13215 | 6317 ft | 287 kts | 272° |
| 2026-04-26 07:01 | 17.53618 | -88.15314 | 5923 ft | 288 kts | 272° |
| 2026-04-26 07:01 | 17.53663 | -88.17401 | 5539 ft | 285 kts | 272° |
| 2026-04-26 07:02 | 17.53708 | -88.19483 | 5165 ft | 287 kts | 272° |
| 2026-04-26 07:02 | 17.53753 | -88.21570 | 4786 ft | 285 kts | 271° |
| 2026-04-26 07:02 | 17.53797 | -88.23638 | 4404 ft | 282 kts | 271° |
| 2026-04-26 07:02 | 17.53841 | -88.25689 | 4026 ft | 282 kts | 271° |
| 2026-04-26 07:03 | 17.53885 | -88.27745 | 3656 ft | 281 kts | 271° |
| 2026-04-26 07:03 | 17.53928 | -88.29789 | 3287 ft | 281 kts | 271° |
| 2026-04-26 07:03 | 17.54051 | -88.31820 | 2963 ft | 277 kts | 280° |
| 2026-04-26 07:03 | 17.54483 | -88.33734 | 3001 ft | 276 kts | 283° |
| 2026-04-26 07:04 | 17.54918 | -88.35700 | 3006 ft | 278 kts | 283° |
| 2026-04-26 07:04 | 17.55345 | -88.37683 | 3005 ft | 280 kts | 283° |
| 2026-04-26 07:04 | 17.55778 | -88.39661 | 3006 ft | 278 kts | 282° |
| 2026-04-26 07:04 | 17.56214 | -88.41640 | 3005 ft | 280 kts | 283° |
| 2026-04-26 07:05 | 17.56652 | -88.43633 | 3002 ft | 281 kts | 283° |
| 2026-04-26 07:05 | 17.57088 | -88.45621 | 3000 ft | 279 kts | 282° |
| 2026-04-26 07:05 | 17.57523 | -88.47608 | 3006 ft | 279 kts | 283° |
| 2026-04-26 07:05 | 17.57929 | -88.49615 | 2989 ft | 282 kts | 278° |
| 2026-04-26 07:06 | 17.57685 | -88.51624 | 2939 ft | 278 kts | 247° |
| 2026-04-26 07:06 | 17.56605 | -88.53266 | 2964 ft | 274 kts | 220° |
| 2026-04-26 07:06 | 17.54965 | -88.54210 | 2977 ft | 269 kts | 193° |
| 2026-04-26 07:06 | 17.53139 | -88.54298 | 2985 ft | 262 kts | 167° |
| 2026-04-26 07:07 | 17.51488 | -88.53569 | 2990 ft | 257 kts | 143° |
| 2026-04-26 07:07 | 17.50326 | -88.52227 | 2981 ft | 238 kts | 119° |
| 2026-04-26 07:07 | 17.49819 | -88.50684 | 2987 ft | 214 kts | 99° |
| 2026-04-26 07:07 | 17.49880 | -88.49187 | 2985 ft | 202 kts | 81° |
| 2026-04-26 07:08 | 17.50194 | -88.47753 | 2940 ft | 204 kts | 78° |
| 2026-04-26 07:08 | 17.50515 | -88.46286 | 2688 ft | 207 kts | 79° |
| 2026-04-26 07:08 | 17.50834 | -88.44831 | 2418 ft | 204 kts | 79° |
| 2026-04-26 07:08 | 17.51148 | -88.43401 | 2160 ft | 199 kts | 79° |
| 2026-04-26 07:09 | 17.51456 | -88.42000 | 1905 ft | 195 kts | 79° |
| 2026-04-26 07:09 | 17.51755 | -88.40635 | 1659 ft | 195 kts | 79° |
| 2026-04-26 07:09 | 17.52052 | -88.39289 | 1400 ft | 178 kts | 79° |
| 2026-04-26 07:09 | 17.52302 | -88.38144 | 1175 ft | 147 kts | 80° |
| 2026-04-26 07:10 | 17.52892 | -88.35454 | 715 ft | 120 kts | 78° |
| 2026-04-26 07:11 | 17.53261 | -88.33742 | 424 ft | 122 kts | 77° |
| 2026-04-26 07:11 | 17.53460 | -88.32886 | 289 ft | 118 kts | 78° |
| 2026-04-26 07:11 | 17.53635 | -88.32051 | 106 ft | 116 kts | 77° |
| 2026-04-26 07:11 | 17.53812 | -88.31257 | 13 ft | 103 kts | 78° |
| 2026-04-26 07:12 | 17.53933 | -88.30706 | 15 ft | 52 kts | 78° |
| 2026-04-26 07:12 | 17.54008 | -88.30356 | 15 ft | 45 kts | 77° |
| 2026-04-26 07:12 | 17.54071 | -88.30058 | 13 ft | 39 kts | 76° |
| 2026-04-26 07:12 | 17.54132 | -88.29803 | 14 ft | 34 kts | 76° |
| 2026-04-26 07:13 | 17.54161 | -88.29592 | 15 ft | 20 kts | 85° |
| 2026-04-26 07:13 | 17.54186 | -88.29567 | 15 ft | 7 kts | 262° |
| 2026-04-26 07:13 | 17.54165 | -88.29644 | 14 ft | 15 kts | 254° |
| 2026-04-26 07:13 | 17.54130 | -88.29778 | 14 ft | 24 kts | 256° |
| 2026-04-26 07:14 | 17.54052 | -88.30151 | 14 ft | 60 kts | 258° |
| 2026-04-26 07:14 | 17.53961 | -88.30565 | 14 ft | 55 kts | 257° |
| 2026-04-26 07:14 | 17.53885 | -88.30899 | 14 ft | 46 kts | 257° |
| 2026-04-26 07:14 | 17.53823 | -88.31206 | 11 ft | 31 kts | 266° |
| 2026-04-26 07:15 | 17.53805 | -88.31271 | 11 ft | 3 kts | 125° |
| 2026-04-26 07:15 | 17.53829 | -88.31173 | 12 ft | 16 kts | 73° |
| 2026-04-26 07:15 | 17.53851 | -88.31066 | 13 ft | 14 kts | 94° |
| 2026-04-26 07:15 | 17.53774 | -88.31014 | 14 ft | 26 kts | 167° |
| 2026-04-26 07:16 | 17.53633 | -88.30978 | 14 ft | 10 kts | 142° |
| 2026-04-26 07:16 | 17.53601 | -88.30970 | 14 ft | 3 kts | 248° |
| 2026-04-26 07:16 | 17.53602 | -88.30973 | 14 ft | 0 kts | 268° |